Strona główna
METAR-TAF:

METAR-TAF

Lotnisko :

Port lotniczy Kuantan

Kuantan, Malezja

Szerokość geograficzna: 03-37N, Długość geograficzna: 103-13E, wysokość: 18 m

Aktualna obserwacja pogody

Raport powstał 49 minut temu, godzina 10:00 UTC
Wiatr 3 kt z kierunków zmiennych
Temperatura 30°C
Wilgotność 75%
Ciśnienie 1008 hPa
Widzialność 10 km lub więcej
Mało chmury na wysokości 2000 ft
Rozproszone chmury na wysokości 16000 ft
Przerywane chmury na wysokości 28000 ft

METAR: WMKD 181000Z VRB03KT 9999 FEW020 SCT160 BKN280 30/25 Q1008 NOSIG

czas: 18:49 (10:49 UTC)


TAF: brakujący

Obserwacja i prognoza pogody dla ponad 4000 lotnisk (raport METAR i TAF).

Dostępne stacje oznaczono żółtymi i czerwonymi punktami na mapie.

Najedź kursorem aby zobaczyć nazwę stacji.

Kliknij aby zobaczyć obserwacje i prognozy pogody.

Aby zmienić mapę: kliknij na zielony przycisk z czarnym krzyżykiem, aby powiększyć; na zielony przycisk z myślnikiem, aby pomniejszyć; na zielone strzałki, aby przejść do map sąsiednich.


METAR-TAF: